createdAt,value
2023-05-05T00:01:03.173Z,7.60
2023-05-05T00:03:31.095Z,6.75
2023-05-05T00:05:58.979Z,7.17
2023-05-05T00:08:26.988Z,7.95
2023-05-05T00:10:55.951Z,7.45
2023-05-05T00:13:25.279Z,7.18
2023-05-05T00:15:54.338Z,7.82
2023-05-05T00:18:22.761Z,7.63
2023-05-05T00:20:50.656Z,7.15
2023-05-05T00:23:19.896Z,7.00
2023-05-05T00:25:48.023Z,7.22
2023-05-05T00:28:15.907Z,8.10
2023-05-05T00:30:45.034Z,9.05
2023-05-05T00:33:13.213Z,7.72
2023-05-05T00:35:41.085Z,7.55
2023-05-05T00:38:09.328Z,7.47
2023-05-05T00:40:37.864Z,8.02
2023-05-05T00:43:05.730Z,8.00
2023-05-05T00:45:33.540Z,7.25
2023-05-05T00:48:02.864Z,7.82
2023-05-05T00:50:31.757Z,7.20
2023-05-05T00:53:02.399Z,7.72
2023-05-05T00:55:31.294Z,8.50
2023-05-05T00:58:00.174Z,8.00
2023-05-05T01:00:29.018Z,8.10
2023-05-05T01:02:57.070Z,7.97
2023-05-05T01:05:28.725Z,8.32
2023-05-05T01:08:16.409Z,9.25
2023-05-05T01:10:49.334Z,8.40
2023-05-05T01:13:26.653Z,8.52
2023-05-05T01:16:05.342Z,8.27
2023-05-05T01:18:40.080Z,7.97
2023-05-05T01:21:14.712Z,8.63
2023-05-05T01:24:17.958Z,8.45
2023-05-05T01:26:56.129Z,8.05
2023-05-05T01:29:39.395Z,7.90
2023-05-05T01:32:11.126Z,8.52
2023-05-05T01:34:43.777Z,8.15
2023-05-05T01:37:16.804Z,7.80
2023-05-05T01:39:45.887Z,8.55
2023-05-05T01:42:15.005Z,8.73
2023-05-05T01:44:44.840Z,9.15
2023-05-05T01:47:17.633Z,8.45
2023-05-05T01:49:47.715Z,8.77
2023-05-05T01:52:17.075Z,8.32
2023-05-05T01:54:47.013Z,8.70
2023-05-05T01:57:16.053Z,8.68
2023-05-05T01:59:44.046Z,8.20
2023-05-05T02:02:14.451Z,8.25
2023-05-05T02:04:44.629Z,8.65
2023-05-05T02:07:13.939Z,8.27
2023-05-05T02:09:43.739Z,8.75
2023-05-05T02:12:12.770Z,8.20
2023-05-05T02:14:43.188Z,8.35
2023-05-05T02:17:11.534Z,8.75
2023-05-05T02:19:45.016Z,8.43
2023-05-05T02:22:15.302Z,8.80
2023-05-05T02:24:43.366Z,8.45
2023-05-05T02:27:12.689Z,8.68
2023-05-05T02:29:47.671Z,8.80
2023-05-05T02:32:19.953Z,9.10
2023-05-05T02:34:51.165Z,8.40
2023-05-05T02:37:22.273Z,8.27
2023-05-05T02:39:58.637Z,8.77
2023-05-05T02:42:30.432Z,8.18
2023-05-05T02:45:02.401Z,8.73
2023-05-05T02:47:36.520Z,7.97
2023-05-05T02:50:07.360Z,8.55
2023-05-05T02:52:36.100Z,7.85
2023-05-05T02:55:05.259Z,8.73
2023-05-05T02:57:38.585Z,8.30
2023-05-05T03:00:11.647Z,8.70
2023-05-05T03:02:47.137Z,7.97
2023-05-05T03:05:22.495Z,9.52
2023-05-05T03:07:55.832Z,9.10
2023-05-05T03:10:29.825Z,8.67
2023-05-05T03:13:00.822Z,8.20
2023-05-05T03:15:33.883Z,8.98
2023-05-05T03:18:03.376Z,8.52
2023-05-05T03:20:33.032Z,8.60
2023-05-05T03:23:02.923Z,8.83
2023-05-05T03:25:43.317Z,8.70
2023-05-05T03:28:11.107Z,8.88
2023-05-05T03:30:39.125Z,8.85
2023-05-05T03:33:07.395Z,8.88
2023-05-05T03:35:36.851Z,8.63
2023-05-05T03:38:04.616Z,8.30
2023-05-05T03:40:42.945Z,8.73
2023-05-05T03:43:11.932Z,9.15
2023-05-05T03:45:39.774Z,8.73
2023-05-05T03:48:09.519Z,8.50
2023-05-05T03:50:38.795Z,8.93
2023-05-05T03:53:06.579Z,8.40
2023-05-05T03:55:34.369Z,8.07
2023-05-05T03:58:02.188Z,8.75
2023-05-05T04:00:30.063Z,8.73
2023-05-05T04:02:57.928Z,8.75
2023-05-05T04:05:25.852Z,8.48
2023-05-05T04:07:54.980Z,8.27
2023-05-05T04:10:22.724Z,8.18
2023-05-05T04:12:50.636Z,8.00
2023-05-05T04:15:18.497Z,8.73
2023-05-05T04:17:46.370Z,7.97
2023-05-05T04:20:14.399Z,8.70
2023-05-05T04:22:42.207Z,9.03
2023-05-05T04:25:18.941Z,8.75
2023-05-05T04:27:50.903Z,8.68
2023-05-05T04:30:18.778Z,8.23
2023-05-05T04:32:46.789Z,8.43
2023-05-05T04:35:14.658Z,8.80
2023-05-05T04:37:42.454Z,8.10
2023-05-05T04:40:13.135Z,8.43
2023-05-05T04:42:45.057Z,8.50
2023-05-05T04:45:15.795Z,8.90
2023-05-05T04:47:44.346Z,8.57
2023-05-05T04:50:13.501Z,8.10
2023-05-05T04:52:41.322Z,8.27
2023-05-05T04:55:11.695Z,7.82
2023-05-05T04:57:39.632Z,8.85
2023-05-05T05:00:09.751Z,8.05
2023-05-05T05:02:38.513Z,8.23
2023-05-05T05:05:07.151Z,8.48
2023-05-05T05:07:34.944Z,8.03
2023-05-05T05:10:02.694Z,7.95
2023-05-05T05:12:31.866Z,8.38
2023-05-05T05:14:59.681Z,8.30
2023-05-05T05:17:27.708Z,7.50
2023-05-05T05:19:56.692Z,8.45
2023-05-05T05:22:24.481Z,8.35
2023-05-05T05:24:52.801Z,8.85
2023-05-05T05:27:20.627Z,8.17
2023-05-05T05:29:49.740Z,8.45
2023-05-05T05:32:17.900Z,8.32
2023-05-05T05:34:45.688Z,7.60
2023-05-05T05:37:13.470Z,8.30
2023-05-05T05:39:43.490Z,8.02
2023-05-05T05:42:11.593Z,8.35
2023-05-05T05:44:39.344Z,8.50
2023-05-05T05:47:08.470Z,7.88
2023-05-05T05:49:36.270Z,8.40
2023-05-05T05:52:04.445Z,8.05
2023-05-05T05:54:32.672Z,8.32
2023-05-05T05:57:00.498Z,7.53
2023-05-05T05:59:28.260Z,7.82
2023-05-05T06:01:56.215Z,8.82
2023-05-05T06:04:25.467Z,7.30
2023-05-05T06:06:53.266Z,6.90
2023-05-05T06:09:21.109Z,6.70
2023-05-05T06:11:49.017Z,6.70
2023-05-05T06:14:18.138Z,6.90
2023-05-05T06:16:47.304Z,6.90
2023-05-05T06:19:15.058Z,7.23
2023-05-05T06:21:44.177Z,6.10
2023-05-05T06:24:11.985Z,6.45
2023-05-05T06:26:39.760Z,5.78
2023-05-05T06:29:07.616Z,8.32
2023-05-05T06:31:35.555Z,7.47
2023-05-05T06:34:03.372Z,6.70
2023-05-05T06:36:32.212Z,5.97
2023-05-05T06:39:01.367Z,5.65
2023-05-05T06:41:29.119Z,6.88
2023-05-05T06:43:56.857Z,5.40
2023-05-05T06:46:24.675Z,5.68
2023-05-05T06:48:52.885Z,10.05
2023-05-05T06:51:20.750Z,5.78
2023-05-05T06:53:48.520Z,5.20
2023-05-05T06:56:17.906Z,5.43
2023-05-05T06:58:45.660Z,5.55
2023-05-05T07:01:13.471Z,5.43
2023-05-05T07:06:09.061Z,5.60
2023-05-05T07:08:36.879Z,12.03
2023-05-05T07:11:04.658Z,4.50
2023-05-05T07:13:33.775Z,6.97
2023-05-05T07:16:01.691Z,5.13
2023-05-05T07:18:29.556Z,5.95
2023-05-05T07:20:57.335Z,5.70
2023-05-05T07:23:25.193Z,5.20
2023-05-05T07:25:52.992Z,5.38
2023-05-05T07:28:22.263Z,5.03
2023-05-05T07:30:51.946Z,4.37
2023-05-05T07:33:19.735Z,5.25
2023-05-05T07:35:47.519Z,5.78
2023-05-05T07:38:15.288Z,4.28
2023-05-05T07:40:43.077Z,4.38
2023-05-05T07:43:10.858Z,4.25
2023-05-05T07:45:39.072Z,4.43
2023-05-05T07:48:08.317Z,4.93
2023-05-05T07:50:36.191Z,3.97
2023-05-05T07:53:13.833Z,5.57
2023-05-05T07:55:42.875Z,4.40
2023-05-05T07:58:11.634Z,5.47
2023-05-05T08:00:39.600Z,5.33
2023-05-05T08:03:11.594Z,4.93
2023-05-05T08:05:40.897Z,6.38
2023-05-05T08:08:08.733Z,4.18
2023-05-05T08:10:36.563Z,4.43
2023-05-05T08:13:04.513Z,6.13
2023-05-05T08:15:32.318Z,4.68
2023-05-05T08:18:00.094Z,4.00
2023-05-05T08:20:30.467Z,3.65
2023-05-05T08:22:58.240Z,3.10
2023-05-05T08:25:26.819Z,3.20
2023-05-05T08:27:54.830Z,4.18
2023-05-05T08:30:22.584Z,4.47
2023-05-05T08:32:50.374Z,4.53
2023-05-05T08:35:18.244Z,5.07
2023-05-05T08:37:47.368Z,5.00
2023-05-05T08:40:15.572Z,3.85
2023-05-05T08:42:45.418Z,5.93
2023-05-05T08:45:13.701Z,4.68
2023-05-05T08:47:43.042Z,4.25
2023-05-05T08:50:13.132Z,6.10
2023-05-05T08:52:44.108Z,3.88
2023-05-05T08:55:24.289Z,5.50
2023-05-05T08:57:53.827Z,3.53
2023-05-05T09:00:22.418Z,4.80
2023-05-05T09:02:50.875Z,4.45
2023-05-05T09:05:19.297Z,4.20
2023-05-05T09:07:47.559Z,5.07
2023-05-05T09:10:16.760Z,5.68
2023-05-05T09:12:44.983Z,4.90
2023-05-05T09:15:16.289Z,4.00
2023-05-05T09:17:44.178Z,5.25
2023-05-05T09:20:13.861Z,5.40
2023-05-05T09:22:43.100Z,4.00
2023-05-05T09:25:13.688Z,5.35
2023-05-05T09:27:45.714Z,4.30
2023-05-05T09:30:16.457Z,4.40
2023-05-05T09:32:46.111Z,4.13
2023-05-05T09:35:13.997Z,5.03
2023-05-05T09:37:41.955Z,4.78
2023-05-05T09:40:11.427Z,4.65
2023-05-05T09:42:40.396Z,5.75
2023-05-05T09:45:27.241Z,4.17
2023-05-05T09:47:59.738Z,3.78
2023-05-05T09:50:31.077Z,4.10
2023-05-05T09:53:00.495Z,4.43
2023-05-05T09:55:28.659Z,3.67
2023-05-05T09:57:56.744Z,3.95
2023-05-05T10:00:39.342Z,3.70
2023-05-05T10:03:07.233Z,4.28
2023-05-05T10:05:48.742Z,3.40
2023-05-05T10:08:17.283Z,3.40
2023-05-05T10:10:51.682Z,4.13
2023-05-05T10:13:21.470Z,4.05
2023-05-05T10:15:52.348Z,4.60
2023-05-05T10:18:22.910Z,4.38
2023-05-05T10:20:54.114Z,3.53
2023-05-05T10:23:24.801Z,3.65
2023-05-05T10:26:00.076Z,4.28
2023-05-05T10:28:33.556Z,3.75
2023-05-05T10:31:12.830Z,3.53
2023-05-05T10:33:55.403Z,4.45
2023-05-05T10:36:25.412Z,4.70
2023-05-05T10:38:57.211Z,4.60
2023-05-05T10:41:25.677Z,4.47
2023-05-05T10:43:56.094Z,4.28
2023-05-05T10:46:25.956Z,4.63
2023-05-05T10:49:00.795Z,4.78
2023-05-05T10:51:40.513Z,4.18
2023-05-05T10:54:18.063Z,3.58
2023-05-05T10:56:47.876Z,3.97
2023-05-05T10:59:41.356Z,3.80
2023-05-05T11:02:24.687Z,3.60
2023-05-05T11:05:09.534Z,3.92
2023-05-05T11:07:37.558Z,3.83
2023-05-05T11:10:06.741Z,4.70
2023-05-05T11:13:13.609Z,3.92
2023-05-05T11:15:41.780Z,3.92
2023-05-05T11:18:31.432Z,4.03
2023-05-05T11:21:16.446Z,5.18
2023-05-05T11:23:48.845Z,3.92
2023-05-05T11:26:17.911Z,4.00
2023-05-05T11:29:03.332Z,6.03
2023-05-05T11:31:32.053Z,5.30
2023-05-05T11:34:27.807Z,3.30
2023-05-05T11:36:58.981Z,3.45
2023-05-05T11:39:41.938Z,4.00
2023-05-05T11:42:24.149Z,4.25
2023-05-05T11:44:52.322Z,3.20
2023-05-05T11:47:31.298Z,3.55
2023-05-05T11:50:16.028Z,2.92
2023-05-05T11:52:44.351Z,5.28
2023-05-05T11:55:12.592Z,4.50
2023-05-05T11:57:40.885Z,4.72
2023-05-05T12:00:09.932Z,4.53
2023-05-05T12:02:38.226Z,4.18
2023-05-05T12:05:08.574Z,5.20
2023-05-05T12:07:37.308Z,4.72
2023-05-05T12:10:05.901Z,6.65
2023-05-05T12:12:39.369Z,5.65
2023-05-05T12:15:09.117Z,5.15
2023-05-05T12:17:39.997Z,4.93
2023-05-05T12:20:11.267Z,4.22
2023-05-05T12:22:40.330Z,4.40
2023-05-05T12:25:09.644Z,4.68
2023-05-05T12:27:37.495Z,3.60
2023-05-05T12:30:14.075Z,3.88
2023-05-05T12:32:42.198Z,4.40
2023-05-05T12:35:12.768Z,6.18
2023-05-05T12:37:41.521Z,9.10
2023-05-05T12:40:46.004Z,4.97
2023-05-05T12:43:30.618Z,3.80
2023-05-05T12:46:03.338Z,3.95
2023-05-05T12:48:31.645Z,3.50
2023-05-05T12:51:18.208Z,3.85
2023-05-05T12:53:46.580Z,4.85
2023-05-05T12:56:33.785Z,3.58
2023-05-05T12:59:02.283Z,3.60
2023-05-05T13:01:30.504Z,4.97
2023-05-05T13:04:15.196Z,4.40
2023-05-05T13:06:46.226Z,4.60
2023-05-05T13:09:30.570Z,4.28
2023-05-05T13:11:59.045Z,4.75
2023-05-05T13:14:27.014Z,3.80
2023-05-05T13:16:54.938Z,3.83
2023-05-05T13:19:24.711Z,4.75
2023-05-05T13:21:54.376Z,3.95
2023-05-05T13:24:31.674Z,3.72
2023-05-05T13:27:06.403Z,3.97
2023-05-05T13:29:34.343Z,4.45
2023-05-05T13:32:02.255Z,4.05
2023-05-05T13:34:30.055Z,3.78
2023-05-05T13:36:59.220Z,4.72
2023-05-05T13:39:27.213Z,4.80
2023-05-05T13:41:55.026Z,3.63
2023-05-05T13:44:22.918Z,3.45
2023-05-05T13:46:50.705Z,3.70
2023-05-05T13:49:19.896Z,4.93
2023-05-05T13:51:47.690Z,4.82
2023-05-05T13:54:16.882Z,4.38
2023-05-05T13:56:44.749Z,4.53
2023-05-05T13:59:12.692Z,4.75
2023-05-05T14:01:40.497Z,5.07
2023-05-05T14:04:09.014Z,4.97
2023-05-05T14:06:36.827Z,5.10
2023-05-05T14:09:06.125Z,4.55
2023-05-05T14:11:35.848Z,3.60
2023-05-05T14:14:03.697Z,4.47
2023-05-05T14:16:31.534Z,3.97
2023-05-05T14:18:59.518Z,3.92
2023-05-05T14:21:27.447Z,4.47
2023-05-05T14:23:55.441Z,3.40
2023-05-05T14:26:23.311Z,4.45
2023-05-05T14:28:52.514Z,3.55
2023-05-05T14:31:20.737Z,4.27
2023-05-05T14:33:48.561Z,3.63
2023-05-05T14:36:16.371Z,5.50
2023-05-05T14:38:44.187Z,6.40
2023-05-05T14:41:12.227Z,4.47
2023-05-05T14:43:40.140Z,3.20
2023-05-05T14:46:09.421Z,5.68
2023-05-05T14:48:37.610Z,5.78
2023-05-05T14:51:06.058Z,4.00
2023-05-05T14:53:35.704Z,10.40
2023-05-05T14:56:03.538Z,4.65
2023-05-05T14:58:31.416Z,3.88
2023-05-05T15:01:00.300Z,5.53
2023-05-05T15:03:29.698Z,4.55
2023-05-05T15:05:57.771Z,6.00
2023-05-05T15:08:25.744Z,3.60
2023-05-05T15:10:54.340Z,4.38
2023-05-05T15:13:22.259Z,3.50
2023-05-05T15:15:50.542Z,3.58
2023-05-05T15:18:18.705Z,4.28
2023-05-05T15:20:47.943Z,4.45
2023-05-05T15:23:16.019Z,5.32
2023-05-05T15:25:44.263Z,4.03
2023-05-05T15:28:12.147Z,4.25
2023-05-05T15:30:40.028Z,3.63
2023-05-05T15:33:07.993Z,4.00
2023-05-05T15:35:36.099Z,4.18
2023-05-05T15:38:05.467Z,4.68
2023-05-05T15:40:33.323Z,3.55
2023-05-05T15:43:01.130Z,4.00
2023-05-05T15:45:28.992Z,4.03
2023-05-05T15:47:56.891Z,4.10
2023-05-05T15:50:24.848Z,4.57
2023-05-05T15:52:52.593Z,4.60
2023-05-05T15:55:22.071Z,4.90
2023-05-05T15:57:49.928Z,4.20
2023-05-05T16:00:18.070Z,4.28
2023-05-05T16:02:45.978Z,5.38
2023-05-05T16:05:14.210Z,7.63
2023-05-05T16:07:42.336Z,5.03
2023-05-05T16:10:11.263Z,4.43
2023-05-05T16:12:40.438Z,4.57
2023-05-05T16:15:09.315Z,5.00
2023-05-05T16:17:37.357Z,8.00
2023-05-05T16:20:06.453Z,5.82
2023-05-05T16:22:34.240Z,5.80
2023-05-05T16:25:02.110Z,5.88
2023-05-05T16:27:29.885Z,6.38
2023-05-05T16:29:59.801Z,6.57
2023-05-05T16:32:28.219Z,5.80
2023-05-05T16:34:56.040Z,6.20
2023-05-05T16:37:24.004Z,6.85
2023-05-05T16:39:51.894Z,6.90
2023-05-05T16:42:20.101Z,7.25
2023-05-05T16:44:47.872Z,6.13
2023-05-05T16:47:17.158Z,6.70
2023-05-05T16:49:45.048Z,6.88
2023-05-05T16:52:12.805Z,6.10
2023-05-05T16:54:41.507Z,8.02
2023-05-05T16:57:09.339Z,6.82
2023-05-05T16:59:37.109Z,12.93
2023-05-05T17:02:04.932Z,7.70
2023-05-05T17:04:34.105Z,16.77
2023-05-05T17:07:01.864Z,9.77
2023-05-05T17:09:29.658Z,6.80
2023-05-05T17:11:57.587Z,6.65
2023-05-05T17:14:27.385Z,6.53
2023-05-05T17:16:55.326Z,8.23
2023-05-05T17:19:23.164Z,7.57
2023-05-05T17:21:52.398Z,6.72
2023-05-05T17:24:21.115Z,7.75
2023-05-05T17:26:49.128Z,7.68
2023-05-05T17:29:19.812Z,6.68
2023-05-05T17:31:48.090Z,6.50
2023-05-05T17:34:15.891Z,8.02
2023-05-05T17:36:43.773Z,8.02
2023-05-05T17:39:13.620Z,9.80
2023-05-05T17:41:42.265Z,9.65
2023-05-05T17:44:10.379Z,10.00
2023-05-05T17:46:39.268Z,11.07
2023-05-05T17:49:07.633Z,8.98
2023-05-05T17:51:35.549Z,8.60
2023-05-05T17:54:03.704Z,9.52
2023-05-05T17:56:33.814Z,9.90
2023-05-05T17:59:02.136Z,7.53
2023-05-05T18:01:30.052Z,6.73
2023-05-05T18:03:58.015Z,7.13
2023-05-05T18:06:26.877Z,6.90
2023-05-05T18:08:54.760Z,8.25
2023-05-05T18:11:26.672Z,7.90
2023-05-05T18:13:55.950Z,7.13
2023-05-05T18:16:23.955Z,6.93
2023-05-05T18:18:51.817Z,6.40
2023-05-05T18:21:19.706Z,7.90
2023-05-05T18:23:47.560Z,6.78
2023-05-05T18:26:15.452Z,6.75
2023-05-05T18:28:43.366Z,8.20
2023-05-05T18:31:12.541Z,5.90
2023-05-05T18:33:40.403Z,7.20
2023-05-05T18:36:08.801Z,5.95
2023-05-05T18:38:36.843Z,6.80
2023-05-05T18:41:04.666Z,5.20
2023-05-05T18:43:32.747Z,5.72
2023-05-05T18:46:00.887Z,5.93
2023-05-05T18:48:31.414Z,6.27
2023-05-05T18:51:02.153Z,6.30
2023-05-05T18:53:30.113Z,7.10
2023-05-05T18:55:58.001Z,13.05
2023-05-05T18:58:26.366Z,6.10
2023-05-05T19:00:54.617Z,7.18
2023-05-05T19:03:22.518Z,9.73
2023-05-05T19:05:51.636Z,7.88
2023-05-05T19:08:19.457Z,5.35
2023-05-05T19:10:47.285Z,6.00
2023-05-05T19:13:15.367Z,5.63
2023-05-05T19:15:43.252Z,7.00
2023-05-05T19:18:11.427Z,5.80
2023-05-05T19:20:42.721Z,7.35
2023-05-05T19:23:12.198Z,5.20
2023-05-05T19:25:40.375Z,6.85
2023-05-05T19:28:08.219Z,5.55
2023-05-05T19:30:36.174Z,5.22
2023-05-05T19:33:04.111Z,6.10
2023-05-05T19:35:32.922Z,6.82
2023-05-05T19:38:01.192Z,7.18
2023-05-05T19:40:30.534Z,6.28
2023-05-05T19:42:58.368Z,9.23
2023-05-05T19:45:26.378Z,5.35
2023-05-05T19:47:54.252Z,4.73
2023-05-05T19:50:22.364Z,4.70
2023-05-05T19:52:50.192Z,6.32
2023-05-05T19:55:19.565Z,5.03
2023-05-05T19:57:48.900Z,6.75
2023-05-05T20:00:17.241Z,5.70
2023-05-05T20:02:45.195Z,6.60
2023-05-05T20:05:13.824Z,5.05
2023-05-05T20:07:42.726Z,5.43
2023-05-05T20:10:12.954Z,7.13
2023-05-05T20:12:42.338Z,5.72
2023-05-05T20:15:12.537Z,5.45
2023-05-05T20:17:40.394Z,7.28
2023-05-05T20:20:09.377Z,8.33
2023-05-05T20:22:38.786Z,3.90
2023-05-05T20:25:08.544Z,3.90
2023-05-05T20:27:36.454Z,4.50
2023-05-05T20:30:04.548Z,4.43
2023-05-05T20:32:33.891Z,4.28
2023-05-05T20:35:01.711Z,4.25
2023-05-05T20:37:29.613Z,3.67
2023-05-05T20:39:58.217Z,4.05
2023-05-05T20:42:27.540Z,4.90
2023-05-05T20:44:55.446Z,4.90
2023-05-05T20:47:24.092Z,4.28
2023-05-05T20:49:53.270Z,3.45
2023-05-05T20:52:21.125Z,3.35
2023-05-05T20:54:49.063Z,3.97
2023-05-05T20:57:16.883Z,2.60
2023-05-05T20:59:44.830Z,3.50
2023-05-05T21:02:13.153Z,2.80
2023-05-05T21:04:41.063Z,4.05
2023-05-05T21:07:10.836Z,3.05
2023-05-05T21:09:39.037Z,3.55
2023-05-05T21:12:07.741Z,2.63
2023-05-05T21:14:35.754Z,4.60
2023-05-05T21:17:03.732Z,3.35
2023-05-05T21:19:31.563Z,3.60
2023-05-05T21:21:59.421Z,4.30
2023-05-05T21:24:28.760Z,4.50
2023-05-05T21:26:56.908Z,2.75
2023-05-05T21:29:25.837Z,3.30
2023-05-05T21:31:53.693Z,3.47
2023-05-05T21:34:21.542Z,2.92
2023-05-05T21:36:49.414Z,2.80
2023-05-05T21:39:17.505Z,3.90
2023-05-05T21:41:46.577Z,3.33
2023-05-05T21:44:14.451Z,4.55
2023-05-05T21:46:42.724Z,3.67
2023-05-05T21:49:14.592Z,2.63
2023-05-05T21:51:42.388Z,2.67
2023-05-05T21:54:10.391Z,2.58
2023-05-05T21:56:38.661Z,2.90
2023-05-05T21:59:07.836Z,4.20
2023-05-05T22:01:36.741Z,2.50
2023-05-05T22:04:04.853Z,2.40
2023-05-05T22:06:33.229Z,3.77
2023-05-05T22:09:01.260Z,3.22
2023-05-05T22:11:29.002Z,2.75
2023-05-05T22:13:56.984Z,3.15
2023-05-05T22:16:26.172Z,3.30
2023-05-05T22:18:54.016Z,4.90
2023-05-05T22:21:22.159Z,2.95
2023-05-05T22:23:49.994Z,2.95
2023-05-05T22:26:17.728Z,4.57
2023-05-05T22:28:46.075Z,4.28
2023-05-05T22:31:13.916Z,3.20
2023-05-05T22:33:43.045Z,5.65
2023-05-05T22:36:11.455Z,3.55
2023-05-05T22:38:39.337Z,3.97
2023-05-05T22:41:08.074Z,3.95
2023-05-05T22:43:35.887Z,4.65
2023-05-05T22:46:04.099Z,3.80
2023-05-05T22:48:32.099Z,4.17
2023-05-05T22:51:01.535Z,3.97
2023-05-05T22:53:29.390Z,3.88
2023-05-05T22:55:58.204Z,4.00
2023-05-05T22:58:26.676Z,4.65
2023-05-05T23:00:54.514Z,3.75
2023-05-05T23:03:22.305Z,4.35
2023-05-05T23:05:50.127Z,3.10
2023-05-05T23:08:20.278Z,3.03
2023-05-05T23:10:48.066Z,4.15
2023-05-05T23:13:16.143Z,3.63
2023-05-05T23:15:44.177Z,3.90
2023-05-05T23:18:12.068Z,3.42
2023-05-05T23:21:11.052Z,3.70
2023-05-05T23:23:40.345Z,3.15
2023-05-05T23:26:08.224Z,3.13
2023-05-05T23:28:36.116Z,3.72
2023-05-05T23:31:04.126Z,3.63
2023-05-05T23:33:32.159Z,3.38
2023-05-05T23:36:00.092Z,3.33
2023-05-05T23:38:28.037Z,3.70
2023-05-05T23:40:57.355Z,3.72
2023-05-05T23:43:25.348Z,4.10
2023-05-05T23:45:53.267Z,4.25
2023-05-05T23:48:21.307Z,3.43
2023-05-05T23:50:49.396Z,4.57
2023-05-05T23:53:17.269Z,3.45
2023-05-05T23:55:45.208Z,4.15
2023-05-05T23:58:14.622Z,4.00
